createdAt,value
2018-09-24T08:52:22.851Z,56.13
2018-09-24T08:54:56.587Z,55.90
2018-09-24T08:57:30.307Z,55.03
2018-09-24T09:00:20.664Z,55.36
2018-09-24T09:02:54.584Z,55.28
2018-09-24T09:06:12.839Z,53.14
2018-09-24T09:08:46.410Z,51.71
2018-09-24T09:11:20.112Z,52.14
2018-09-24T09:13:53.889Z,53.17
2018-09-24T09:16:27.812Z,52.95
2018-09-24T09:19:01.583Z,51.08
2018-09-24T09:21:35.251Z,50.98
2018-09-24T09:24:09.092Z,50.82
2018-09-24T09:26:42.760Z,49.74
2018-09-24T09:29:16.512Z,50.04
2018-09-24T09:31:50.271Z,49.85
2018-09-24T09:34:24.179Z,51.14
2018-09-24T09:36:58.027Z,51.68
2018-09-24T09:39:31.692Z,50.85
2018-09-24T09:42:05.415Z,50.57
2018-09-24T09:44:39.189Z,50.93
2018-09-24T09:47:13.149Z,49.05
2018-09-24T09:49:46.972Z,50.65
2018-09-24T09:52:20.751Z,51.26
2018-09-24T09:54:54.416Z,50.78
2018-09-24T09:57:28.220Z,51.33
2018-09-24T10:00:01.883Z,51.22
2018-09-24T10:02:35.736Z,51.01
2018-09-24T10:05:10.548Z,52.09
2018-09-24T10:07:44.136Z,52.46
2018-09-24T10:10:17.840Z,51.90
2018-09-24T10:12:51.600Z,53.16
2018-09-24T10:15:25.584Z,53.24
2018-09-24T10:17:59.242Z,53.83
2018-09-24T10:20:32.916Z,54.09
2018-09-24T10:23:06.536Z,53.46
2018-09-24T10:25:40.401Z,52.77
2018-09-24T10:28:14.243Z,52.65
2018-09-24T10:30:48.027Z,52.39
2018-09-24T10:33:21.816Z,52.05
2018-09-24T10:35:55.670Z,53.49
2018-09-24T10:38:29.360Z,53.59
2018-09-24T10:41:06.300Z,54.46
2018-09-24T10:43:40.083Z,56.29
2018-09-24T10:46:14.356Z,57.70
2018-09-24T10:48:48.187Z,57.43
2018-09-24T10:51:21.967Z,59.31
2018-09-24T10:54:08.176Z,58.04
2018-09-24T10:56:41.904Z,58.40
2018-09-24T10:59:15.671Z,55.47
2018-09-24T11:01:49.486Z,55.19
2018-09-24T11:04:23.229Z,54.79
2018-09-24T11:06:57.064Z,54.06
2018-09-24T11:09:30.698Z,55.42
2018-09-24T11:12:04.464Z,56.03
2018-09-24T11:14:38.099Z,55.03
2018-09-24T11:17:19.819Z,54.46
2018-09-24T11:20:00.050Z,55.32
2018-09-24T11:22:48.011Z,54.77
2018-09-24T11:25:28.136Z,53.13
2018-09-24T11:28:08.997Z,52.84
2018-09-24T11:30:52.948Z,53.61
2018-09-24T11:33:32.771Z,52.09
2018-09-24T11:36:12.915Z,51.94
2018-09-24T11:38:52.201Z,51.75
2018-09-24T11:41:32.011Z,51.22
2018-09-24T11:44:05.865Z,49.51
2018-09-24T11:46:39.864Z,50.31
2018-09-24T11:49:13.616Z,49.24
2018-09-24T11:51:47.307Z,50.22
2018-09-24T11:54:21.129Z,49.41
2018-09-24T11:56:54.760Z,49.89
2018-09-24T11:59:28.761Z,50.52
2018-09-24T12:02:02.523Z,50.58
2018-09-24T12:04:36.355Z,50.83
2018-09-24T12:07:10.475Z,47.84
2018-09-24T12:09:44.231Z,48.48
2018-09-24T12:12:18.508Z,48.79
2018-09-24T12:14:52.175Z,50.09
2018-09-24T12:17:25.785Z,51.39
2018-09-24T12:19:59.489Z,50.86
2018-09-24T12:22:33.163Z,49.23
2018-09-24T12:25:06.876Z,49.95
2018-09-24T12:27:40.732Z,49.08
2018-09-24T12:30:14.604Z,50.27
2018-09-24T12:32:48.385Z,50.67
2018-09-24T12:35:22.227Z,50.85
2018-09-24T12:37:55.916Z,50.77
2018-09-24T12:40:29.548Z,50.57
2018-09-24T12:43:03.174Z,50.25
2018-09-24T12:45:36.978Z,50.95
2018-09-24T12:48:10.656Z,50.32
2018-09-24T12:50:44.361Z,49.99
2018-09-24T12:53:18.174Z,50.36
2018-09-24T12:55:51.748Z,49.52
2018-09-24T12:58:25.477Z,49.78
2018-09-24T13:00:59.225Z,50.42
2018-09-24T13:03:32.801Z,48.81
2018-09-24T13:06:06.652Z,48.72
2018-09-24T13:17:25.248Z,47.62
2018-09-24T13:19:58.993Z,47.67
2018-09-24T13:22:32.900Z,49.84
2018-09-24T13:25:06.603Z,50.01
2018-09-24T13:27:40.280Z,49.90
2018-09-24T13:30:14.135Z,53.43
2018-09-24T13:32:47.933Z,57.44
2018-09-24T13:35:21.719Z,57.60
2018-09-24T13:37:55.540Z,60.04
2018-09-24T13:40:29.280Z,59.33
2018-09-24T13:43:03.110Z,58.95
2018-09-24T13:45:36.818Z,56.44
2018-09-24T13:48:10.808Z,54.17
2018-09-24T13:50:44.695Z,53.99
2018-09-24T13:53:18.382Z,51.00
2018-09-24T13:55:52.042Z,51.17
2018-09-24T13:58:25.639Z,51.19
2018-09-24T14:00:59.674Z,50.34
2018-09-24T14:03:33.333Z,50.27
2018-09-24T14:06:07.002Z,48.33
2018-09-24T14:08:40.866Z,48.31
2018-09-24T14:11:14.737Z,49.09
2018-09-24T14:13:48.442Z,48.43
2018-09-24T14:16:22.257Z,49.79
2018-09-24T14:18:56.060Z,49.12
2018-09-24T14:21:29.708Z,49.83
2018-09-24T14:24:04.122Z,50.08
2018-09-24T14:26:38.356Z,51.30
2018-09-24T14:29:12.756Z,52.30
2018-09-24T14:31:47.095Z,52.21
2018-09-24T14:34:20.723Z,53.46
2018-09-24T14:36:54.524Z,54.79
2018-09-24T14:39:28.246Z,55.36
2018-09-24T14:42:02.103Z,55.88
2018-09-24T14:44:35.706Z,55.71
2018-09-24T14:47:09.486Z,56.59
2018-09-24T14:49:43.251Z,56.18
2018-09-24T14:52:17.112Z,56.17
2018-09-24T14:54:50.872Z,56.00
2018-09-24T14:57:24.941Z,56.76
2018-09-24T14:59:58.774Z,57.82
2018-09-24T15:02:32.478Z,59.12
2018-09-24T15:05:06.336Z,59.25
2018-09-24T15:07:40.062Z,60.20
2018-09-24T15:10:13.783Z,59.26
2018-09-24T15:12:47.433Z,58.79
2018-09-24T15:15:21.011Z,57.18
2018-09-24T15:17:54.859Z,57.37
2018-09-24T15:20:28.723Z,56.53
2018-09-24T15:23:02.395Z,55.30
2018-09-24T15:25:36.272Z,55.56
2018-09-24T15:28:10.112Z,54.95
2018-09-24T15:30:44.521Z,56.00
2018-09-24T15:33:18.242Z,54.61
2018-09-24T15:35:51.851Z,54.83
2018-09-24T15:38:25.552Z,54.56
2018-09-24T15:40:59.204Z,55.09
2018-09-24T15:43:32.845Z,54.90
2018-09-24T15:46:06.705Z,55.81
2018-09-24T15:48:40.435Z,54.61
2018-09-24T15:51:14.278Z,55.06
2018-09-24T15:53:48.161Z,54.44
2018-09-24T15:56:21.920Z,55.46
2018-09-24T15:58:55.675Z,54.57
2018-09-24T16:01:29.351Z,55.25
2018-09-24T16:04:03.041Z,55.74
2018-09-24T16:06:36.780Z,55.52
2018-09-24T16:09:13.564Z,55.33
2018-09-24T16:11:47.429Z,55.57
2018-09-24T16:14:21.423Z,55.67
2018-09-24T16:16:55.116Z,55.72
2018-09-24T16:59:04.921Z,56.14
2018-09-24T17:01:38.565Z,57.95
2018-09-24T17:04:12.468Z,58.09
2018-09-24T17:06:46.164Z,56.53
2018-09-24T17:09:19.851Z,56.68
2018-09-24T17:11:53.715Z,57.60
2018-09-24T17:14:27.309Z,57.62
2018-09-24T17:17:01.147Z,59.31
2018-09-24T17:19:35.027Z,60.32
2018-09-24T17:22:08.777Z,61.25
2018-09-24T17:24:42.463Z,60.49
2018-09-24T17:27:16.234Z,60.27
2018-09-24T17:29:49.927Z,60.82
2018-09-24T17:32:23.767Z,60.96
2018-09-24T17:34:57.642Z,61.65
2018-09-24T17:37:31.430Z,61.86
2018-09-24T17:40:05.310Z,61.28
2018-09-24T17:42:38.987Z,61.20
2018-09-24T17:45:12.738Z,61.22
2018-09-24T17:47:46.475Z,62.38
2018-09-24T17:50:20.281Z,62.63
2018-09-24T17:52:54.143Z,61.73
2018-09-24T17:55:28.025Z,62.68
2018-09-24T17:58:01.848Z,63.48
2018-09-24T18:00:35.636Z,62.80
2018-09-24T18:03:09.407Z,63.14
2018-09-24T18:05:43.191Z,63.68
2018-09-24T18:11:06.983Z,63.07
2018-09-24T18:13:40.663Z,64.04
2018-09-24T18:16:14.444Z,63.72
2018-09-24T18:27:19.040Z,61.68
2018-09-24T18:29:52.737Z,61.42
2018-09-24T18:32:26.340Z,61.33
2018-09-24T18:35:00.013Z,61.65
2018-09-24T18:37:33.776Z,61.22
2018-09-24T18:40:07.570Z,60.68
2018-09-24T18:42:42.802Z,60.73
2018-09-24T18:45:16.487Z,60.50
2018-09-24T18:47:50.505Z,61.05
2018-09-24T18:50:24.646Z,61.79
2018-09-24T18:52:58.291Z,61.45
2018-09-24T18:55:31.979Z,61.22
2018-09-24T18:58:05.585Z,61.53
2018-09-24T19:00:39.370Z,60.73
2018-09-24T19:03:13.268Z,59.69
2018-09-24T19:05:46.988Z,59.80
2018-09-24T19:08:20.712Z,60.41
2018-09-24T19:10:54.324Z,60.21
2018-09-24T19:13:28.257Z,60.87
2018-09-24T19:16:02.048Z,60.80
2018-09-24T19:18:35.819Z,61.07
2018-09-24T19:21:09.741Z,59.80
2018-09-24T19:23:43.587Z,60.42
2018-09-24T19:26:17.496Z,60.55
2018-09-24T19:28:51.324Z,60.21
2018-09-24T19:31:25.184Z,60.44
2018-09-24T19:33:58.968Z,60.56
2018-09-24T19:36:32.724Z,62.00
2018-09-24T19:39:06.566Z,60.73
2018-09-24T19:41:40.693Z,61.78
2018-09-24T19:44:14.765Z,61.98
2018-09-24T19:46:48.387Z,62.21
2018-09-24T19:49:22.047Z,63.01
2018-09-24T19:51:55.712Z,62.19
2018-09-24T19:54:29.518Z,62.17
2018-09-24T19:57:03.437Z,62.17
2018-09-24T19:59:37.480Z,62.03
2018-09-24T20:02:11.707Z,61.50
2018-09-24T20:04:45.535Z,62.56
2018-09-24T20:07:19.065Z,62.62
2018-09-24T20:09:52.751Z,61.08
2018-09-24T20:12:26.416Z,62.00
2018-09-24T20:15:00.156Z,62.54
2018-09-24T20:17:33.811Z,63.18
2018-09-24T20:20:07.539Z,63.01
2018-09-24T20:22:41.253Z,63.87
2018-09-24T20:25:15.140Z,64.04
2018-09-24T20:27:49.160Z,63.45
2018-09-24T20:30:23.100Z,63.54
2018-09-24T20:32:56.858Z,63.38
2018-09-24T20:35:30.556Z,62.60
2018-09-24T20:38:04.202Z,62.47
2018-09-24T20:40:37.949Z,62.25
2018-09-24T20:43:11.652Z,62.89
2018-09-24T20:45:45.420Z,62.27
2018-09-24T20:48:19.160Z,62.43
2018-09-24T20:50:52.954Z,62.48
2018-09-24T20:53:26.645Z,62.68
2018-09-24T20:56:00.439Z,63.34
2018-09-24T20:58:34.263Z,63.19
2018-09-24T21:01:07.944Z,63.37
2018-09-24T21:03:41.681Z,63.94
2018-09-24T21:06:15.566Z,64.67
2018-09-24T21:08:49.208Z,65.78
2018-09-24T21:11:23.098Z,68.00
2018-09-24T21:13:57.063Z,68.82
2018-09-24T21:16:31.473Z,69.73
2018-09-24T21:19:05.296Z,69.05
2018-09-24T21:21:38.954Z,70.39
2018-09-24T21:24:13.277Z,72.00
2018-09-24T21:26:47.122Z,70.98
2018-09-24T21:29:20.855Z,71.75
2018-09-24T21:31:54.572Z,71.41
2018-09-24T21:34:28.193Z,72.07
2018-09-24T21:37:01.979Z,72.25
2018-09-24T21:39:35.580Z,72.80
2018-09-24T21:42:09.228Z,72.61
2018-09-24T21:44:43.043Z,72.17
2018-09-24T21:47:16.786Z,72.37
2018-09-24T21:49:50.460Z,72.47
2018-09-24T21:52:24.317Z,72.50
2018-09-24T21:54:57.975Z,73.15
2018-09-24T21:57:31.816Z,72.79
2018-09-24T22:00:05.576Z,73.17
2018-09-24T22:02:39.448Z,73.36
2018-09-24T22:05:13.481Z,73.38
2018-09-24T22:07:47.271Z,74.31
2018-09-24T22:10:20.960Z,74.15
2018-09-24T22:12:54.812Z,74.24
2018-09-24T22:15:28.393Z,74.62
